sensor_id;sensor_type;location;lat;lon;timestamp;temperature;humidity
18147;DHT22;9199;48.832;9.182;2023-03-14T00:00:55;10.10;99.90
18147;DHT22;9199;48.832;9.182;2023-03-14T00:03:21;10.10;99.90
18147;DHT22;9199;48.832;9.182;2023-03-14T00:05:49;10.20;99.90
18147;DHT22;9199;48.832;9.182;2023-03-14T00:08:16;10.20;99.90
18147;DHT22;9199;48.832;9.182;2023-03-14T00:10:43;10.20;99.90
18147;DHT22;9199;48.832;9.182;2023-03-14T00:13:10;10.20;99.90
18147;DHT22;9199;48.832;9.182;2023-03-14T00:15:36;10.20;99.90
18147;DHT22;9199;48.832;9.182;2023-03-14T00:18:03;10.20;99.90
18147;DHT22;9199;48.832;9.182;2023-03-14T00:20:30;10.20;99.90
18147;DHT22;9199;48.832;9.182;2023-03-14T00:22:58;10.20;99.90
18147;DHT22;9199;48.832;9.182;2023-03-14T00:25:24;10.20;99.90
18147;DHT22;9199;48.832;9.182;2023-03-14T00:27:51;10.20;99.90
18147;DHT22;9199;48.832;9.182;2023-03-14T00:30:18;10.20;99.90
18147;DHT22;9199;48.832;9.182;2023-03-14T00:32:45;10.20;99.90
18147;DHT22;9199;48.832;9.182;2023-03-14T00:35:11;10.20;99.90
18147;DHT22;9199;48.832;9.182;2023-03-14T00:37:38;10.20;99.90
18147;DHT22;9199;48.832;9.182;2023-03-14T00:40:08;10.20;99.90
18147;DHT22;9199;48.832;9.182;2023-03-14T00:42:35;10.20;99.90
18147;DHT22;9199;48.832;9.182;2023-03-14T00:45:01;10.20;99.90
18147;DHT22;9199;48.832;9.182;2023-03-14T00:47:29;10.20;99.90
18147;DHT22;9199;48.832;9.182;2023-03-14T00:49:55;10.30;99.90
18147;DHT22;9199;48.832;9.182;2023-03-14T00:52:22;10.20;99.90
18147;DHT22;9199;48.832;9.182;2023-03-14T00:54:49;10.20;99.90
18147;DHT22;9199;48.832;9.182;2023-03-14T00:57:17;10.20;99.90
18147;DHT22;9199;48.832;9.182;2023-03-14T00:59:44;10.30;99.90
18147;DHT22;9199;48.832;9.182;2023-03-14T01:02:10;10.30;99.90
18147;DHT22;9199;48.832;9.182;2023-03-14T01:04:37;10.30;99.90
18147;DHT22;9199;48.832;9.182;2023-03-14T01:07:04;10.30;99.90
18147;DHT22;9199;48.832;9.182;2023-03-14T01:09:31;10.30;99.90
18147;DHT22;9199;48.832;9.182;2023-03-14T01:11:58;10.20;99.90
18147;DHT22;9199;48.832;9.182;2023-03-14T01:14:26;10.30;99.90
18147;DHT22;9199;48.832;9.182;2023-03-14T01:16:53;10.30;99.90
18147;DHT22;9199;48.832;9.182;2023-03-14T01:19:19;10.40;99.90
18147;DHT22;9199;48.832;9.182;2023-03-14T01:21:46;10.40;99.90
18147;DHT22;9199;48.832;9.182;2023-03-14T01:24:13;10.40;99.90
18147;DHT22;9199;48.832;9.182;2023-03-14T01:26:39;10.40;99.90
18147;DHT22;9199;48.832;9.182;2023-03-14T01:29:06;10.40;99.90
18147;DHT22;9199;48.832;9.182;2023-03-14T01:31:34;10.30;99.90
18147;DHT22;9199;48.832;9.182;2023-03-14T01:34:01;10.30;99.90
18147;DHT22;9199;48.832;9.182;2023-03-14T01:36:27;10.20;99.90
18147;DHT22;9199;48.832;9.182;2023-03-14T01:38:54;10.20;99.90
18147;DHT22;9199;48.832;9.182;2023-03-14T01:41:23;10.20;99.90
18147;DHT22;9199;48.832;9.182;2023-03-14T01:43:51;10.20;99.90
18147;DHT22;9199;48.832;9.182;2023-03-14T01:46:31;10.20;99.90
18147;DHT22;9199;48.832;9.182;2023-03-14T01:49:07;10.20;99.90
18147;DHT22;9199;48.832;9.182;2023-03-14T01:51:40;10.20;99.90
18147;DHT22;9199;48.832;9.182;2023-03-14T01:54:13;10.20;99.90
18147;DHT22;9199;48.832;9.182;2023-03-14T01:56:42;10.20;99.90
18147;DHT22;9199;48.832;9.182;2023-03-14T01:59:11;10.20;99.90
18147;DHT22;9199;48.832;9.182;2023-03-14T02:01:41;10.30;99.90
18147;DHT22;9199;48.832;9.182;2023-03-14T02:04:10;10.30;99.90
18147;DHT22;9199;48.832;9.182;2023-03-14T02:06:49;10.30;99.90
18147;DHT22;9199;48.832;9.182;2023-03-14T02:09:16;10.30;99.90
18147;DHT22;9199;48.832;9.182;2023-03-14T02:11:43;10.30;99.90
18147;DHT22;9199;48.832;9.182;2023-03-14T02:14:17;10.30;99.90
18147;DHT22;9199;48.832;9.182;2023-03-14T02:16:45;10.30;99.90
18147;DHT22;9199;48.832;9.182;2023-03-14T02:19:15;10.30;99.90
18147;DHT22;9199;48.832;9.182;2023-03-14T02:21:49;10.30;99.90
18147;DHT22;9199;48.832;9.182;2023-03-14T02:24:24;10.30;99.90
18147;DHT22;9199;48.832;9.182;2023-03-14T02:27:10;10.30;99.90
18147;DHT22;9199;48.832;9.182;2023-03-14T02:29:41;10.30;99.90
18147;DHT22;9199;48.832;9.182;2023-03-14T02:32:10;10.30;99.90
18147;DHT22;9199;48.832;9.182;2023-03-14T02:34:37;10.30;99.90
18147;DHT22;9199;48.832;9.182;2023-03-14T02:37:05;10.30;99.90
18147;DHT22;9199;48.832;9.182;2023-03-14T02:39:36;10.20;99.90
18147;DHT22;9199;48.832;9.182;2023-03-14T02:42:05;10.30;99.90
18147;DHT22;9199;48.832;9.182;2023-03-14T02:44:32;10.20;99.90
18147;DHT22;9199;48.832;9.182;2023-03-14T02:47:00;10.20;99.90
18147;DHT22;9199;48.832;9.182;2023-03-14T02:49:29;10.20;99.90
18147;DHT22;9199;48.832;9.182;2023-03-14T02:51:58;10.20;99.90
18147;DHT22;9199;48.832;9.182;2023-03-14T02:54:24;10.20;99.90
18147;DHT22;9199;48.832;9.182;2023-03-14T02:56:51;10.30;99.90
18147;DHT22;9199;48.832;9.182;2023-03-14T02:59:19;10.20;99.90
18147;DHT22;9199;48.832;9.182;2023-03-14T03:01:46;10.20;99.90
18147;DHT22;9199;48.832;9.182;2023-03-14T03:04:12;10.20;99.90
18147;DHT22;9199;48.832;9.182;2023-03-14T03:06:39;10.20;99.90
18147;DHT22;9199;48.832;9.182;2023-03-14T03:09:06;10.20;99.90
18147;DHT22;9199;48.832;9.182;2023-03-14T03:11:33;10.20;99.90
18147;DHT22;9199;48.832;9.182;2023-03-14T03:13:59;10.20;99.90
18147;DHT22;9199;48.832;9.182;2023-03-14T03:16:27;10.20;99.90
18147;DHT22;9199;48.832;9.182;2023-03-14T03:18:54;10.10;99.90
18147;DHT22;9199;48.832;9.182;2023-03-14T03:21:21;10.20;99.90
18147;DHT22;9199;48.832;9.182;2023-03-14T03:23:49;10.20;99.90
18147;DHT22;9199;48.832;9.182;2023-03-14T03:26:16;10.20;99.90
18147;DHT22;9199;48.832;9.182;2023-03-14T03:28:43;10.20;99.90
18147;DHT22;9199;48.832;9.182;2023-03-14T03:31:10;10.20;99.90
18147;DHT22;9199;48.832;9.182;2023-03-14T03:33:39;10.20;99.90
18147;DHT22;9199;48.832;9.182;2023-03-14T03:36:07;10.20;99.90
18147;DHT22;9199;48.832;9.182;2023-03-14T03:38:34;10.20;99.90
18147;DHT22;9199;48.832;9.182;2023-03-14T03:41:03;10.20;99.90
18147;DHT22;9199;48.832;9.182;2023-03-14T03:43:30;10.20;99.90
18147;DHT22;9199;48.832;9.182;2023-03-14T03:45:57;10.20;99.90
18147;DHT22;9199;48.832;9.182;2023-03-14T03:48:23;10.10;99.90
18147;DHT22;9199;48.832;9.182;2023-03-14T03:50:51;10.10;99.90
18147;DHT22;9199;48.832;9.182;2023-03-14T03:53:18;10.20;99.90
18147;DHT22;9199;48.832;9.182;2023-03-14T03:55:45;10.10;99.90
18147;DHT22;9199;48.832;9.182;2023-03-14T03:58:11;10.10;99.90
18147;DHT22;9199;48.832;9.182;2023-03-14T04:00:38;10.20;99.90
18147;DHT22;9199;48.832;9.182;2023-03-14T04:03:05;10.10;99.90
18147;DHT22;9199;48.832;9.182;2023-03-14T04:05:32;10.10;99.90
18147;DHT22;9199;48.832;9.182;2023-03-14T04:08:00;10.10;99.90
18147;DHT22;9199;48.832;9.182;2023-03-14T04:10:28;10.10;99.90
18147;DHT22;9199;48.832;9.182;2023-03-14T04:12:54;10.10;99.90
18147;DHT22;9199;48.832;9.182;2023-03-14T04:15:21;10.10;99.90
18147;DHT22;9199;48.832;9.182;2023-03-14T04:17:47;10.10;99.90
18147;DHT22;9199;48.832;9.182;2023-03-14T04:20:14;10.10;99.90
18147;DHT22;9199;48.832;9.182;2023-03-14T04:22:41;10.10;99.90
18147;DHT22;9199;48.832;9.182;2023-03-14T04:25:09;10.10;99.90
18147;DHT22;9199;48.832;9.182;2023-03-14T04:27:36;10.00;99.90
18147;DHT22;9199;48.832;9.182;2023-03-14T04:30:03;10.00;99.90
18147;DHT22;9199;48.832;9.182;2023-03-14T04:32:30;9.90;99.90
18147;DHT22;9199;48.832;9.182;2023-03-14T04:34:56;10.00;99.90
18147;DHT22;9199;48.832;9.182;2023-03-14T04:37:23;10.00;99.90
18147;DHT22;9199;48.832;9.182;2023-03-14T04:39:50;10.00;99.90
18147;DHT22;9199;48.832;9.182;2023-03-14T04:42:18;10.00;99.90
18147;DHT22;9199;48.832;9.182;2023-03-14T04:44:44;10.00;99.90
18147;DHT22;9199;48.832;9.182;2023-03-14T04:47:12;10.00;99.90
18147;DHT22;9199;48.832;9.182;2023-03-14T04:49:38;10.00;99.90
18147;DHT22;9199;48.832;9.182;2023-03-14T04:52:05;10.00;99.90
18147;DHT22;9199;48.832;9.182;2023-03-14T04:54:32;10.00;99.90
18147;DHT22;9199;48.832;9.182;2023-03-14T04:56:58;10.00;99.90
18147;DHT22;9199;48.832;9.182;2023-03-14T04:59:26;9.90;99.90
18147;DHT22;9199;48.832;9.182;2023-03-14T05:01:53;9.90;99.90
18147;DHT22;9199;48.832;9.182;2023-03-14T05:04:20;10.00;99.90
18147;DHT22;9199;48.832;9.182;2023-03-14T05:06:47;9.90;99.90
18147;DHT22;9199;48.832;9.182;2023-03-14T05:09:13;9.90;99.90
18147;DHT22;9199;48.832;9.182;2023-03-14T05:11:40;9.80;99.90
18147;DHT22;9199;48.832;9.182;2023-03-14T05:14:07;9.80;99.90
18147;DHT22;9199;48.832;9.182;2023-03-14T05:16:35;9.80;99.90
18147;DHT22;9199;48.832;9.182;2023-03-14T05:19:02;9.80;99.90
18147;DHT22;9199;48.832;9.182;2023-03-14T05:21:28;9.70;99.90
18147;DHT22;9199;48.832;9.182;2023-03-14T05:23:55;9.80;99.90
18147;DHT22;9199;48.832;9.182;2023-03-14T05:26:22;9.80;99.90
18147;DHT22;9199;48.832;9.182;2023-03-14T05:28:49;9.70;99.90
18147;DHT22;9199;48.832;9.182;2023-03-14T05:31:16;9.70;99.90
18147;DHT22;9199;48.832;9.182;2023-03-14T05:33:44;9.80;99.90
18147;DHT22;9199;48.832;9.182;2023-03-14T05:36:11;9.80;99.90
18147;DHT22;9199;48.832;9.182;2023-03-14T05:38:38;9.80;99.90
18147;DHT22;9199;48.832;9.182;2023-03-14T05:41:05;9.70;99.90
18147;DHT22;9199;48.832;9.182;2023-03-14T05:43:31;9.80;99.90
18147;DHT22;9199;48.832;9.182;2023-03-14T05:45:58;9.80;99.90
18147;DHT22;9199;48.832;9.182;2023-03-14T05:48:25;9.90;99.90
18147;DHT22;9199;48.832;9.182;2023-03-14T05:50:56;9.80;99.90
18147;DHT22;9199;48.832;9.182;2023-03-14T05:53:23;9.80;99.90
18147;DHT22;9199;48.832;9.182;2023-03-14T05:55:51;9.80;99.90
18147;DHT22;9199;48.832;9.182;2023-03-14T05:58:18;9.80;99.90
18147;DHT22;9199;48.832;9.182;2023-03-14T06:00:44;9.90;99.90
18147;DHT22;9199;48.832;9.182;2023-03-14T06:03:11;9.90;99.90
18147;DHT22;9199;48.832;9.182;2023-03-14T06:05:38;10.00;99.90
18147;DHT22;9199;48.832;9.182;2023-03-14T06:08:06;10.20;99.90
18147;DHT22;9199;48.832;9.182;2023-03-14T06:10:34;10.60;99.90
18147;DHT22;9199;48.832;9.182;2023-03-14T06:13:00;10.80;99.90
18147;DHT22;9199;48.832;9.182;2023-03-14T06:15:27;11.00;99.90
18147;DHT22;9199;48.832;9.182;2023-03-14T06:17:54;11.20;99.90
18147;DHT22;9199;48.832;9.182;2023-03-14T06:20:21;11.10;99.90
18147;DHT22;9199;48.832;9.182;2023-03-14T06:22:47;11.00;99.90
18147;DHT22;9199;48.832;9.182;2023-03-14T06:25:16;10.90;99.90
18147;DHT22;9199;48.832;9.182;2023-03-14T06:27:43;10.80;99.90
18147;DHT22;9199;48.832;9.182;2023-03-14T06:30:10;10.80;99.90
18147;DHT22;9199;48.832;9.182;2023-03-14T06:32:37;10.70;99.90
18147;DHT22;9199;48.832;9.182;2023-03-14T06:35:04;10.70;99.90
18147;DHT22;9199;48.832;9.182;2023-03-14T06:37:31;10.60;99.90
18147;DHT22;9199;48.832;9.182;2023-03-14T06:39:58;10.60;99.90
18147;DHT22;9199;48.832;9.182;2023-03-14T06:42:26;10.70;99.90
18147;DHT22;9199;48.832;9.182;2023-03-14T06:44:52;10.70;99.90
18147;DHT22;9199;48.832;9.182;2023-03-14T06:47:19;10.70;99.90
18147;DHT22;9199;48.832;9.182;2023-03-14T06:49:46;10.70;99.90
18147;DHT22;9199;48.832;9.182;2023-03-14T06:52:12;10.80;99.90
18147;DHT22;9199;48.832;9.182;2023-03-14T06:54:39;11.10;99.90
18147;DHT22;9199;48.832;9.182;2023-03-14T06:57:06;11.30;99.90
18147;DHT22;9199;48.832;9.182;2023-03-14T06:59:34;11.50;99.90
18147;DHT22;9199;48.832;9.182;2023-03-14T07:02:00;11.60;99.90
18147;DHT22;9199;48.832;9.182;2023-03-14T07:04:27;11.80;99.90
18147;DHT22;9199;48.832;9.182;2023-03-14T07:06:54;12.00;99.90
18147;DHT22;9199;48.832;9.182;2023-03-14T07:09:21;12.20;99.90
18147;DHT22;9199;48.832;9.182;2023-03-14T07:11:47;12.30;99.90
18147;DHT22;9199;48.832;9.182;2023-03-14T07:14:14;12.50;99.90
18147;DHT22;9199;48.832;9.182;2023-03-14T07:16:42;12.70;99.90
18147;DHT22;9199;48.832;9.182;2023-03-14T07:19:10;12.90;99.90
18147;DHT22;9199;48.832;9.182;2023-03-14T07:21:37;13.30;99.90
18147;DHT22;9199;48.832;9.182;2023-03-14T07:24:04;13.60;99.90
18147;DHT22;9199;48.832;9.182;2023-03-14T07:26:31;13.80;99.90
18147;DHT22;9199;48.832;9.182;2023-03-14T07:28:58;14.00;99.90
18147;DHT22;9199;48.832;9.182;2023-03-14T07:31:25;13.90;99.90
18147;DHT22;9199;48.832;9.182;2023-03-14T07:33:53;13.50;99.90
18147;DHT22;9199;48.832;9.182;2023-03-14T07:36:19;13.00;99.90
18147;DHT22;9199;48.832;9.182;2023-03-14T07:38:46;13.00;99.90
18147;DHT22;9199;48.832;9.182;2023-03-14T07:41:13;13.40;99.90
18147;DHT22;9199;48.832;9.182;2023-03-14T07:43:40;13.90;99.90
18147;DHT22;9199;48.832;9.182;2023-03-14T07:46:07;14.40;99.90
18147;DHT22;9199;48.832;9.182;2023-03-14T07:48:34;14.80;99.90
18147;DHT22;9199;48.832;9.182;2023-03-14T07:51:02;15.30;99.90
18147;DHT22;9199;48.832;9.182;2023-03-14T07:53:28;15.30;99.90
18147;DHT22;9199;48.832;9.182;2023-03-14T07:55:55;15.30;99.80
18147;DHT22;9199;48.832;9.182;2023-03-14T07:58:22;15.10;99.90
18147;DHT22;9199;48.832;9.182;2023-03-14T08:00:49;15.40;99.90
18147;DHT22;9199;48.832;9.182;2023-03-14T08:03:16;15.40;99.50
18147;DHT22;9199;48.832;9.182;2023-03-14T08:05:43;15.40;99.20
18147;DHT22;9199;48.832;9.182;2023-03-14T08:08:11;15.40;99.00
18147;DHT22;9199;48.832;9.182;2023-03-14T08:10:38;15.40;99.40
18147;DHT22;9199;48.832;9.182;2023-03-14T08:13:04;15.70;98.60
18147;DHT22;9199;48.832;9.182;2023-03-14T08:15:31;15.80;98.30
18147;DHT22;9199;48.832;9.182;2023-03-14T08:17:58;15.70;98.10
18147;DHT22;9199;48.832;9.182;2023-03-14T08:20:26;15.70;97.90
18147;DHT22;9199;48.832;9.182;2023-03-14T08:22:55;15.90;97.80
18147;DHT22;9199;48.832;9.182;2023-03-14T08:25:24;16.20;97.00
18147;DHT22;9199;48.832;9.182;2023-03-14T08:27:51;16.80;96.20
18147;DHT22;9199;48.832;9.182;2023-03-14T08:30:19;17.30;95.20
18147;DHT22;9199;48.832;9.182;2023-03-14T08:32:46;17.70;94.60
18147;DHT22;9199;48.832;9.182;2023-03-14T08:35:14;17.40;94.60
18147;DHT22;9199;48.832;9.182;2023-03-14T08:37:40;17.30;94.20
18147;DHT22;9199;48.832;9.182;2023-03-14T08:40:08;16.80;93.80
18147;DHT22;9199;48.832;9.182;2023-03-14T08:42:39;16.10;94.10
18147;DHT22;9199;48.832;9.182;2023-03-14T08:45:07;15.30;94.90
18147;DHT22;9199;48.832;9.182;2023-03-14T08:47:34;14.90;95.50
18147;DHT22;9199;48.832;9.182;2023-03-14T08:50:01;14.80;95.80
18147;DHT22;9199;48.832;9.182;2023-03-14T08:52:29;14.90;95.60
18147;DHT22;9199;48.832;9.182;2023-03-14T08:54:56;14.80;95.50
18147;DHT22;9199;48.832;9.182;2023-03-14T08:57:23;15.00;95.40
18147;DHT22;9199;48.832;9.182;2023-03-14T08:59:54;15.60;95.30
18147;DHT22;9199;48.832;9.182;2023-03-14T09:02:22;16.10;93.90
18147;DHT22;9199;48.832;9.182;2023-03-14T09:04:50;16.70;93.10
18147;DHT22;9199;48.832;9.182;2023-03-14T09:07:17;16.70;92.90
18147;DHT22;9199;48.832;9.182;2023-03-14T09:09:44;16.40;92.80
18147;DHT22;9199;48.832;9.182;2023-03-14T09:12:11;16.60;93.60
18147;DHT22;9199;48.832;9.182;2023-03-14T09:14:38;16.90;93.10
18147;DHT22;9199;48.832;9.182;2023-03-14T09:17:06;16.60;93.00
18147;DHT22;9199;48.832;9.182;2023-03-14T09:19:33;16.00;94.00
18147;DHT22;9199;48.832;9.182;2023-03-14T09:21:59;15.40;94.80
18147;DHT22;9199;48.832;9.182;2023-03-14T09:24:26;15.10;95.50
18147;DHT22;9199;48.832;9.182;2023-03-14T09:26:54;14.90;95.60
18147;DHT22;9199;48.832;9.182;2023-03-14T09:29:21;15.20;96.50
18147;DHT22;9199;48.832;9.182;2023-03-14T09:31:48;15.50;96.10
18147;DHT22;9199;48.832;9.182;2023-03-14T09:34:16;15.50;95.80
18147;DHT22;9199;48.832;9.182;2023-03-14T09:36:43;15.40;95.90
18147;DHT22;9199;48.832;9.182;2023-03-14T09:39:10;15.40;96.30
18147;DHT22;9199;48.832;9.182;2023-03-14T09:41:38;15.10;96.40
18147;DHT22;9199;48.832;9.182;2023-03-14T09:44:10;14.80;96.40
18147;DHT22;9199;48.832;9.182;2023-03-14T09:46:41;14.80;96.60
18147;DHT22;9199;48.832;9.182;2023-03-14T09:49:11;14.80;96.70
18147;DHT22;9199;48.832;9.182;2023-03-14T09:51:42;14.90;96.80
18147;DHT22;9199;48.832;9.182;2023-03-14T09:54:22;15.00;96.60
18147;DHT22;9199;48.832;9.182;2023-03-14T09:56:50;15.40;96.30
18147;DHT22;9199;48.832;9.182;2023-03-14T09:59:17;15.30;96.60
18147;DHT22;9199;48.832;9.182;2023-03-14T10:01:44;15.10;96.30
18147;DHT22;9199;48.832;9.182;2023-03-14T10:04:15;14.80;96.70
18147;DHT22;9199;48.832;9.182;2023-03-14T10:06:43;15.50;96.20
18147;DHT22;9199;48.832;9.182;2023-03-14T10:09:16;16.50;94.90
18147;DHT22;9199;48.832;9.182;2023-03-14T10:11:44;17.10;93.80
18147;DHT22;9199;48.832;9.182;2023-03-14T10:14:12;17.60;92.80
18147;DHT22;9199;48.832;9.182;2023-03-14T10:16:42;17.80;92.70
18147;DHT22;9199;48.832;9.182;2023-03-14T10:19:11;18.30;91.70
18147;DHT22;9199;48.832;9.182;2023-03-14T10:21:39;19.00;91.10
18147;DHT22;9199;48.832;9.182;2023-03-14T10:24:19;19.60;89.20
18147;DHT22;9199;48.832;9.182;2023-03-14T10:26:48;20.00;86.60
18147;DHT22;9199;48.832;9.182;2023-03-14T10:29:16;19.80;86.40
18147;DHT22;9199;48.832;9.182;2023-03-14T10:31:47;19.00;85.80
18147;DHT22;9199;48.832;9.182;2023-03-14T10:34:20;18.20;87.30
18147;DHT22;9199;48.832;9.182;2023-03-14T10:36:52;17.40;89.50
18147;DHT22;9199;48.832;9.182;2023-03-14T10:39:34;16.50;91.00
18147;DHT22;9199;48.832;9.182;2023-03-14T10:42:10;15.90;92.30
18147;DHT22;9199;48.832;9.182;2023-03-14T10:44:39;15.70;93.00
18147;DHT22;9199;48.832;9.182;2023-03-14T10:47:06;15.40;93.40
18147;DHT22;9199;48.832;9.182;2023-03-14T10:49:35;15.60;94.10
18147;DHT22;9199;48.832;9.182;2023-03-14T10:52:14;15.60;93.30
18147;DHT22;9199;48.832;9.182;2023-03-14T10:54:47;15.50;93.10
18147;DHT22;9199;48.832;9.182;2023-03-14T10:57:14;15.40;93.70
18147;DHT22;9199;48.832;9.182;2023-03-14T10:59:42;15.20;93.50
18147;DHT22;9199;48.832;9.182;2023-03-14T11:02:23;14.90;93.70
18147;DHT22;9199;48.832;9.182;2023-03-14T11:05:02;14.80;94.10
18147;DHT22;9199;48.832;9.182;2023-03-14T11:07:35;14.80;94.30
18147;DHT22;9199;48.832;9.182;2023-03-14T11:10:13;14.40;94.90
18147;DHT22;9199;48.832;9.182;2023-03-14T11:12:45;14.30;95.40
18147;DHT22;9199;48.832;9.182;2023-03-14T11:15:18;14.10;95.90
18147;DHT22;9199;48.832;9.182;2023-03-14T11:17:51;14.10;96.50
18147;DHT22;9199;48.832;9.182;2023-03-14T11:20:32;14.00;97.80
18147;DHT22;9199;48.832;9.182;2023-03-14T11:23:07;13.80;98.50
18147;DHT22;9199;48.832;9.182;2023-03-14T11:25:41;13.50;99.90
18147;DHT22;9199;48.832;9.182;2023-03-14T11:28:16;13.10;99.90
18147;DHT22;9199;48.832;9.182;2023-03-14T11:30:50;12.80;99.90
18147;DHT22;9199;48.832;9.182;2023-03-14T11:33:19;12.40;99.90
18147;DHT22;9199;48.832;9.182;2023-03-14T11:35:50;12.20;99.90
18147;DHT22;9199;48.832;9.182;2023-03-14T11:38:29;12.10;99.90
18147;DHT22;9199;48.832;9.182;2023-03-14T11:40:58;12.00;99.90
18147;DHT22;9199;48.832;9.182;2023-03-14T11:43:28;11.90;99.90
18147;DHT22;9199;48.832;9.182;2023-03-14T11:46:01;11.90;99.90
18147;DHT22;9199;48.832;9.182;2023-03-14T11:48:39;11.90;99.90
18147;DHT22;9199;48.832;9.182;2023-03-14T11:51:13;11.90;99.90
18147;DHT22;9199;48.832;9.182;2023-03-14T11:53:48;11.90;99.90
18147;DHT22;9199;48.832;9.182;2023-03-14T11:56:22;11.90;99.90
18147;DHT22;9199;48.832;9.182;2023-03-14T11:58:57;11.90;99.90
18147;DHT22;9199;48.832;9.182;2023-03-14T12:01:45;11.90;99.90
18147;DHT22;9199;48.832;9.182;2023-03-14T12:04:22;11.70;99.90
18147;DHT22;9199;48.832;9.182;2023-03-14T12:06:51;11.50;99.90
18147;DHT22;9199;48.832;9.182;2023-03-14T12:09:19;11.50;99.90
18147;DHT22;9199;48.832;9.182;2023-03-14T12:11:50;11.80;99.90
18147;DHT22;9199;48.832;9.182;2023-03-14T12:14:24;12.20;99.90
18147;DHT22;9199;48.832;9.182;2023-03-14T12:16:54;12.40;99.90
18147;DHT22;9199;48.832;9.182;2023-03-14T12:19:32;12.60;99.90
18147;DHT22;9199;48.832;9.182;2023-03-14T12:22:06;12.40;99.90
18147;DHT22;9199;48.832;9.182;2023-03-14T12:24:36;12.20;99.90
18147;DHT22;9199;48.832;9.182;2023-03-14T12:27:06;12.10;99.90
18147;DHT22;9199;48.832;9.182;2023-03-14T12:29:57;12.00;99.90
18147;DHT22;9199;48.832;9.182;2023-03-14T12:32:25;12.20;99.90
18147;DHT22;9199;48.832;9.182;2023-03-14T12:34:52;12.40;99.90
18147;DHT22;9199;48.832;9.182;2023-03-14T12:37:41;12.40;99.90
18147;DHT22;9199;48.832;9.182;2023-03-14T12:40:17;12.20;99.90
18147;DHT22;9199;48.832;9.182;2023-03-14T12:42:54;13.20;99.90
18147;DHT22;9199;48.832;9.182;2023-03-14T12:45:26;14.00;99.90
18147;DHT22;9199;48.832;9.182;2023-03-14T12:48:03;14.50;99.10
18147;DHT22;9199;48.832;9.182;2023-03-14T12:50:41;13.20;98.10
18147;DHT22;9199;48.832;9.182;2023-03-14T12:53:36;13.10;97.60
18147;DHT22;9199;48.832;9.182;2023-03-14T12:56:20;13.40;95.40
18147;DHT22;9199;48.832;9.182;2023-03-14T12:59:07;13.60;94.60
18147;DHT22;9199;48.832;9.182;2023-03-14T13:01:47;14.00;92.90
18147;DHT22;9199;48.832;9.182;2023-03-14T13:04:14;13.80;91.40
18147;DHT22;9199;48.832;9.182;2023-03-14T13:06:50;14.30;91.80
18147;DHT22;9199;48.832;9.182;2023-03-14T13:09:55;14.80;90.10
18147;DHT22;9199;48.832;9.182;2023-03-14T13:12:29;15.40;85.70
18147;DHT22;9199;48.832;9.182;2023-03-14T13:15:00;14.80;83.90
18147;DHT22;9199;48.832;9.182;2023-03-14T13:17:33;13.90;85.70
18147;DHT22;9199;48.832;9.182;2023-03-14T13:20:02;13.70;88.10
18147;DHT22;9199;48.832;9.182;2023-03-14T13:22:33;13.20;86.50
18147;DHT22;9199;48.832;9.182;2023-03-14T13:25:04;13.20;86.00
18147;DHT22;9199;48.832;9.182;2023-03-14T13:27:33;13.50;84.20
18147;DHT22;9199;48.832;9.182;2023-03-14T13:30:17;13.00;83.00
18147;DHT22;9199;48.832;9.182;2023-03-14T13:32:46;13.30;82.80
18147;DHT22;9199;48.832;9.182;2023-03-14T13:35:18;13.70;80.70
18147;DHT22;9199;48.832;9.182;2023-03-14T13:37:45;14.20;78.40
18147;DHT22;9199;48.832;9.182;2023-03-14T13:40:20;14.60;77.10
18147;DHT22;9199;48.832;9.182;2023-03-14T13:42:47;14.10;76.50
18147;DHT22;9199;48.832;9.182;2023-03-14T13:45:16;12.90;77.70
18147;DHT22;9199;48.832;9.182;2023-03-14T13:47:42;12.30;79.00
18147;DHT22;9199;48.832;9.182;2023-03-14T13:50:15;11.70;78.50
18147;DHT22;9199;48.832;9.182;2023-03-14T13:52:43;11.60;81.80
18147;DHT22;9199;48.832;9.182;2023-03-14T13:55:14;12.00;83.40
18147;DHT22;9199;48.832;9.182;2023-03-14T13:57:46;12.30;81.80
18147;DHT22;9199;48.832;9.182;2023-03-14T14:00:22;12.40;78.60
18147;DHT22;9199;48.832;9.182;2023-03-14T14:02:52;12.40;77.20
18147;DHT22;9199;48.832;9.182;2023-03-14T14:05:19;12.10;76.90
18147;DHT22;9199;48.832;9.182;2023-03-14T14:07:46;11.90;77.80
18147;DHT22;9199;48.832;9.182;2023-03-14T14:10:15;12.00;77.50
18147;DHT22;9199;48.832;9.182;2023-03-14T14:12:44;12.00;77.20
18147;DHT22;9199;48.832;9.182;2023-03-14T14:15:17;11.90;75.20
18147;DHT22;9199;48.832;9.182;2023-03-14T14:17:49;11.40;70.10
18147;DHT22;9199;48.832;9.182;2023-03-14T14:20:21;11.00;71.70
18147;DHT22;9199;48.832;9.182;2023-03-14T14:22:50;10.80;71.50
18147;DHT22;9199;48.832;9.182;2023-03-14T14:25:18;10.80;73.20
18147;DHT22;9199;48.832;9.182;2023-03-14T14:27:48;10.80;73.40
18147;DHT22;9199;48.832;9.182;2023-03-14T14:30:30;10.80;74.90
18147;DHT22;9199;48.832;9.182;2023-03-14T14:33:19;10.90;74.30
18147;DHT22;9199;48.832;9.182;2023-03-14T14:35:51;10.80;75.00
18147;DHT22;9199;48.832;9.182;2023-03-14T14:38:19;10.80;75.40
18147;DHT22;9199;48.832;9.182;2023-03-14T14:40:50;10.80;76.00
18147;DHT22;9199;48.832;9.182;2023-03-14T14:43:20;10.70;75.50
18147;DHT22;9199;48.832;9.182;2023-03-14T14:45:49;10.50;76.10
18147;DHT22;9199;48.832;9.182;2023-03-14T14:48:20;10.40;77.00
18147;DHT22;9199;48.832;9.182;2023-03-14T14:50:56;10.40;76.00
18147;DHT22;9199;48.832;9.182;2023-03-14T14:53:26;10.50;76.40
18147;DHT22;9199;48.832;9.182;2023-03-14T14:55:55;10.50;76.40
18147;DHT22;9199;48.832;9.182;2023-03-14T14:58:25;10.50;76.70
18147;DHT22;9199;48.832;9.182;2023-03-14T15:00:56;10.60;77.10
18147;DHT22;9199;48.832;9.182;2023-03-14T15:03:26;10.70;76.50
18147;DHT22;9199;48.832;9.182;2023-03-14T15:05:54;10.70;75.60
18147;DHT22;9199;48.832;9.182;2023-03-14T15:08:21;10.50;76.30
18147;DHT22;9199;48.832;9.182;2023-03-14T15:10:48;10.50;76.00
18147;DHT22;9199;48.832;9.182;2023-03-14T15:13:14;10.50;76.80
18147;DHT22;9199;48.832;9.182;2023-03-14T15:15:41;10.90;76.50
18147;DHT22;9199;48.832;9.182;2023-03-14T15:18:12;10.90;75.00
18147;DHT22;9199;48.832;9.182;2023-03-14T15:20:41;12.20;74.10
18147;DHT22;9199;48.832;9.182;2023-03-14T15:23:10;12.80;70.70
18147;DHT22;9199;48.832;9.182;2023-03-14T15:25:37;12.30;71.50
18147;DHT22;9199;48.832;9.182;2023-03-14T15:28:17;12.30;72.20
18147;DHT22;9199;48.832;9.182;2023-03-14T15:30:45;12.20;71.00
18147;DHT22;9199;48.832;9.182;2023-03-14T15:33:12;12.00;71.40
18147;DHT22;9199;48.832;9.182;2023-03-14T15:35:40;11.60;72.70
18147;DHT22;9199;48.832;9.182;2023-03-14T15:38:10;11.10;74.60
18147;DHT22;9199;48.832;9.182;2023-03-14T15:40:37;12.10;72.70
18147;DHT22;9199;48.832;9.182;2023-03-14T15:43:03;13.00;70.60
18147;DHT22;9199;48.832;9.182;2023-03-14T15:45:30;13.60;70.50
18147;DHT22;9199;48.832;9.182;2023-03-14T15:47:57;14.40;67.90
18147;DHT22;9199;48.832;9.182;2023-03-14T15:50:23;14.20;67.20
18147;DHT22;9199;48.832;9.182;2023-03-14T15:52:53;13.30;69.10
18147;DHT22;9199;48.832;9.182;2023-03-14T15:55:21;12.60;70.60
18147;DHT22;9199;48.832;9.182;2023-03-14T15:57:47;13.00;70.00
18147;DHT22;9199;48.832;9.182;2023-03-14T16:00:18;13.80;70.50